St Solene — FVDG — position and weather

sailwx.info

Track history (hours):
 
Tides and Currents Weather Stations Pressure Air Temp Water Temp Dewpoint Dewpoint Depression Visibility Wind Speed Wind Dir Waves Ship Positions

St Solene

Last reported at 2017-Apr-27 19:56 UTC. Time now 2017-Apr-27 22:42 UTC.
Position N 43°14' E 009°24'.

Length 104 m; draft 6.4 m.

Type: Tanker. MMSI: 226302000.

Date/timePositionNaut miles runAvg speedWind from/ knotsBaromVisibWave heightAir tempDewpointWater temp
2017-Apr-27 19:56N 43°14' E 009°24'410.2
2017-Apr-27 19:30N 43°11' E 009°29'  
2017-Apr-24 06:57N 43°12' E 009°24'510.1
2017-Apr-24 06:30N 43°12' E 009°18'16711.6
2017-Apr-23 16:03N 42°51' E 005°31'111.9
2017-Apr-23 16:00N 42°51' E 005°30'2311.4
2017-Apr-23 14:00N 43°04' E 005°04'1712.4
2017-Apr-23 12:36N 43°21' E 004°58'112.1
2017-Apr-23 12:30N 43°22' E 004°57'5 9.3
2017-Apr-23 12:00N 43°25' E 004°53'0 0.0
2017-Apr-22 16:10N 43°26' E 004°54'0 0.2
2017-Apr-22 15:56N 43°26' E 004°54'2 4.1
2017-Apr-22 15:21N 43°23' E 004°55'3 9.5
2017-Apr-22 15:00N 43°21' E 004°59'710.0
2017-Apr-22 14:19N 43°15' E 005°01'2411.1
2017-Apr-22 12:08N 42°53' E 005°15'  
2017-Apr-19 22:51N 43°21' E 004°58'3 8.2
2017-Apr-19 22:30N 43°24' E 004°59'0 0.9
2017-Apr-19 21:59N 43°24' E 004°60'0 0.0
2017-Apr-19 21:29N 43°24' E 004°60'0 0.0
2017-Apr-19 20:59N 43°24' E 004°60'0 0.0
2017-Apr-19 20:26N 43°24' E 004°60'0 0.0
2017-Apr-19 19:59N 43°24' E 004°60'0 0.0
2017-Apr-19 19:29N 43°24' E 004°60'0 0.0
2017-Apr-19 18:59N 43°24' E 004°60'0 0.0
2017-Apr-19 18:29N 43°24' E 004°60'0 0.0
2017-Apr-19 17:59N 43°24' E 004°60'0 0.0
2017-Apr-19 17:29N 43°24' E 004°60'0 0.0
2017-Apr-19 16:59N 43°24' E 004°60'0 0.0
2017-Apr-19 16:29N 43°24' E 004°60'0 0.0
2017-Apr-19 15:59N 43°24' E 004°60'0 0.0
2017-Apr-19 15:29N 43°24' E 004°60'0 0.0
2017-Apr-19 14:56N 43°24' E 004°60'0 0.0
2017-Apr-19 14:26N 43°24' E 004°60'0 0.0
2017-Apr-19 13:26N 43°24' E 004°60'0 0.0
2017-Apr-19 12:56N 43°24' E 004°60'0 0.0
2017-Apr-19 12:29N 43°24' E 004°60'0 0.0
2017-Apr-19 11:59N 43°24' E 004°60'0 0.0
2017-Apr-19 11:29N 43°24' E 004°60'0 0.0
2017-Apr-19 10:59N 43°24' E 004°60'0 0.0
2017-Apr-19 10:29N 43°24' E 004°60'0 0.0
2017-Apr-19 09:59N 43°24' E 004°60'0 0.0
2017-Apr-19 09:26N 43°24' E 004°60'0 0.0
2017-Apr-19 08:53N 43°24' E 004°60'0 0.0
2017-Apr-19 08:26N 43°24' E 004°60'0 0.0
2017-Apr-19 07:59N 43°24' E 004°60'0 0.0
2017-Apr-19 07:29N 43°24' E 004°60'0 0.0
2017-Apr-19 06:59N 43°24' E 004°60'0 0.0
2017-Apr-19 06:29N 43°24' E 004°60'0 0.0
2017-Apr-19 05:59N 43°24' E 004°60'0 0.0
2017-Apr-19 05:26N 43°24' E 004°60'0 0.0
2017-Apr-19 04:59N 43°24' E 004°60'0 0.0
2017-Apr-19 04:23N 43°24' E 004°60'0 0.0
2017-Apr-19 03:56N 43°24' E 004°60'0 0.5
2017-Apr-19 03:30N 43°24' E 004°59'2 4.0
2017-Apr-19 03:00N 43°25' E 004°57'0 0.3
2017-Apr-19 02:20N 43°24' E 004°57'0 0.0
2017-Apr-19 01:50N 43°24' E 004°57'0 0.0
2017-Apr-19 01:29N 43°24' E 004°57'0 0.0
2017-Apr-19 00:56N 43°24' E 004°57'0 0.0
2017-Apr-19 00:29N 43°24' E 004°57'0 0.0
2017-Apr-18 23:56N 43°24' E 004°57'0 0.0
2017-Apr-18 23:29N 43°24' E 004°57'0 0.0
2017-Apr-18 22:59N 43°24' E 004°57'0 0.0
2017-Apr-18 22:20N 43°24' E 004°57'0 0.0
2017-Apr-18 21:44N 43°24' E 004°57'0 0.0
2017-Apr-18 21:26N 43°24' E 004°57'0 0.0
2017-Apr-18 20:53N 43°24' E 004°57'0 0.0
2017-Apr-18 20:20N 43°24' E 004°57'0 0.0
2017-Apr-18 19:50N 43°24' E 004°57'0 0.0
2017-Apr-18 19:29N 43°24' E 004°57'0 0.0
2017-Apr-18 18:59N 43°24' E 004°57'0 0.0
2017-Apr-18 18:29N 43°24' E 004°57'0 0.0
2017-Apr-18 17:59N 43°24' E 004°57'0 0.0
2017-Apr-18 17:26N 43°24' E 004°57'0 0.0
2017-Apr-18 16:53N 43°24' E 004°57'0 0.6
2017-Apr-18 16:30N 43°24' E 004°57'3 2.4
2017-Apr-18 15:28N 43°26' E 004°54'0 0.0
2017-Apr-18 08:55N 43°26' E 004°54'  
Track history (hours):
 
Tides and Currents Weather Stations Pressure Air Temp Water Temp Dewpoint Dewpoint Depression Visibility Wind Speed Wind Dir Waves Ship Positions

St Solene

Last reported at 2017-Apr-27 19:56 UTC. Time now 2017-Apr-27 22:42 UTC.
Position N 43°14' E 009°24'.

Length 104 m; draft 6.4 m.

Type: Tanker. MMSI: 226302000.

Date/timePositionNaut miles runAvg speedWind from/ knotsBaromVisibWave heightAir tempDewpointWater temp
2017-Apr-27 19:56N 43°14' E 009°24'410.2
2017-Apr-27 19:30N 43°11' E 009°29'  
2017-Apr-24 06:57N 43°12' E 009°24'510.1
2017-Apr-24 06:30N 43°12' E 009°18'16711.6
2017-Apr-23 16:03N 42°51' E 005°31'111.9
2017-Apr-23 16:00N 42°51' E 005°30'2311.4
2017-Apr-23 14:00N 43°04' E 005°04'1712.4
2017-Apr-23 12:36N 43°21' E 004°58'112.1
2017-Apr-23 12:30N 43°22' E 004°57'5 9.3
2017-Apr-23 12:00N 43°25' E 004°53'0 0.0
2017-Apr-22 16:10N 43°26' E 004°54'0 0.2
2017-Apr-22 15:56N 43°26' E 004°54'2 4.1
2017-Apr-22 15:21N 43°23' E 004°55'3 9.5
2017-Apr-22 15:00N 43°21' E 004°59'710.0
2017-Apr-22 14:19N 43°15' E 005°01'2411.1
2017-Apr-22 12:08N 42°53' E 005°15'  
2017-Apr-19 22:51N 43°21' E 004°58'3 8.2
2017-Apr-19 22:30N 43°24' E 004°59'0 0.9
2017-Apr-19 21:59N 43°24' E 004°60'0 0.0
2017-Apr-19 21:29N 43°24' E 004°60'0 0.0
2017-Apr-19 20:59N 43°24' E 004°60'0 0.0
2017-Apr-19 20:26N 43°24' E 004°60'0 0.0
2017-Apr-19 19:59N 43°24' E 004°60'0 0.0
2017-Apr-19 19:29N 43°24' E 004°60'0 0.0
2017-Apr-19 18:59N 43°24' E 004°60'0 0.0
2017-Apr-19 18:29N 43°24' E 004°60'0 0.0
2017-Apr-19 17:59N 43°24' E 004°60'0 0.0
2017-Apr-19 17:29N 43°24' E 004°60'0 0.0
2017-Apr-19 16:59N 43°24' E 004°60'0 0.0
2017-Apr-19 16:29N 43°24' E 004°60'0 0.0
2017-Apr-19 15:59N 43°24' E 004°60'0 0.0
2017-Apr-19 15:29N 43°24' E 004°60'0 0.0
2017-Apr-19 14:56N 43°24' E 004°60'0 0.0
2017-Apr-19 14:26N 43°24' E 004°60'0 0.0
2017-Apr-19 13:26N 43°24' E 004°60'0 0.0
2017-Apr-19 12:56N 43°24' E 004°60'0 0.0
2017-Apr-19 12:29N 43°24' E 004°60'0 0.0
2017-Apr-19 11:59N 43°24' E 004°60'0 0.0
2017-Apr-19 11:29N 43°24' E 004°60'0 0.0
2017-Apr-19 10:59N 43°24' E 004°60'0 0.0
2017-Apr-19 10:29N 43°24' E 004°60'0 0.0
2017-Apr-19 09:59N 43°24' E 004°60'0 0.0
2017-Apr-19 09:26N 43°24' E 004°60'0 0.0
2017-Apr-19 08:53N 43°24' E 004°60'0 0.0
2017-Apr-19 08:26N 43°24' E 004°60'0 0.0
2017-Apr-19 07:59N 43°24' E 004°60'0 0.0
2017-Apr-19 07:29N 43°24' E 004°60'0 0.0
2017-Apr-19 06:59N 43°24' E 004°60'0 0.0
2017-Apr-19 06:29N 43°24' E 004°60'0 0.0
2017-Apr-19 05:59N 43°24' E 004°60'0 0.0
2017-Apr-19 05:26N 43°24' E 004°60'0 0.0
2017-Apr-19 04:59N 43°24' E 004°60'0 0.0
2017-Apr-19 04:23N 43°24' E 004°60'0 0.0
2017-Apr-19 03:56N 43°24' E 004°60'0 0.5
2017-Apr-19 03:30N 43°24' E 004°59'2 4.0
2017-Apr-19 03:00N 43°25' E 004°57'0 0.3
2017-Apr-19 02:20N 43°24' E 004°57'0 0.0
2017-Apr-19 01:50N 43°24' E 004°57'0 0.0
2017-Apr-19 01:29N 43°24' E 004°57'0 0.0
2017-Apr-19 00:56N 43°24' E 004°57'0 0.0
2017-Apr-19 00:29N 43°24' E 004°57'0 0.0
2017-Apr-18 23:56N 43°24' E 004°57'0 0.0
2017-Apr-18 23:29N 43°24' E 004°57'0 0.0
2017-Apr-18 22:59N 43°24' E 004°57'0 0.0
2017-Apr-18 22:20N 43°24' E 004°57'0 0.0
2017-Apr-18 21:44N 43°24' E 004°57'0 0.0
2017-Apr-18 21:26N 43°24' E 004°57'0 0.0
2017-Apr-18 20:53N 43°24' E 004°57'0 0.0
2017-Apr-18 20:20N 43°24' E 004°57'0 0.0
2017-Apr-18 19:50N 43°24' E 004°57'0 0.0
2017-Apr-18 19:29N 43°24' E 004°57'0 0.0
2017-Apr-18 18:59N 43°24' E 004°57'0 0.0
2017-Apr-18 18:29N 43°24' E 004°57'0 0.0
2017-Apr-18 17:59N 43°24' E 004°57'0 0.0
2017-Apr-18 17:26N 43°24' E 004°57'0 0.0
2017-Apr-18 16:53N 43°24' E 004°57'0 0.6
2017-Apr-18 16:30N 43°24' E 004°57'3 2.4
2017-Apr-18 15:28N 43°26' E 004°54'0 0.0
2017-Apr-18 08:55N 43°26' E 004°54'  

Dump ship's entire track history